createdAt,value
2023-02-02T00:00:58.039Z,5.47
2023-02-02T00:03:02.606Z,5.47
2023-02-02T00:05:07.313Z,5.48
2023-02-02T00:07:19.011Z,5.47
2023-02-02T00:09:28.133Z,5.42
2023-02-02T00:11:32.697Z,5.44
2023-02-02T00:13:37.242Z,5.42
2023-02-02T00:15:42.168Z,5.39
2023-02-02T00:17:46.722Z,5.38
2023-02-02T00:19:51.388Z,5.39
2023-02-02T00:21:56.089Z,5.41
2023-02-02T00:24:00.641Z,5.40
2023-02-02T00:26:05.188Z,5.39
2023-02-02T00:28:09.708Z,5.41
2023-02-02T00:30:15.243Z,5.44
2023-02-02T00:32:19.767Z,5.45
2023-02-02T00:34:25.937Z,5.50
2023-02-02T00:36:30.696Z,5.49
2023-02-02T00:38:35.403Z,5.47
2023-02-02T00:40:42.572Z,5.48
2023-02-02T00:42:50.513Z,5.50
2023-02-02T00:45:07.501Z,5.49
2023-02-02T00:47:12.086Z,5.48
2023-02-02T00:49:16.940Z,5.47
2023-02-02T00:51:21.483Z,5.45
2023-02-02T00:53:26.144Z,5.34
2023-02-02T00:55:30.745Z,5.36
2023-02-02T00:57:37.925Z,5.31
2023-02-02T00:59:45.229Z,5.27
2023-02-02T01:01:50.016Z,5.19
2023-02-02T01:03:59.160Z,5.21
2023-02-02T01:06:03.762Z,5.13
2023-02-02T01:08:08.852Z,5.20
2023-02-02T01:10:14.972Z,5.23
2023-02-02T01:12:20.612Z,5.22
2023-02-02T01:14:27.943Z,5.25
2023-02-02T01:16:33.749Z,5.28
2023-02-02T01:18:40.269Z,5.34
2023-02-02T01:20:47.360Z,5.30
2023-02-02T01:22:53.173Z,5.30
2023-02-02T01:24:57.737Z,5.40
2023-02-02T01:27:02.692Z,5.50
2023-02-02T01:29:10.964Z,5.39
2023-02-02T01:31:19.088Z,5.06
2023-02-02T01:33:24.109Z,5.01
2023-02-02T01:35:32.722Z,4.91
2023-02-02T01:37:37.291Z,4.80
2023-02-02T01:39:41.897Z,4.52
2023-02-02T01:41:46.445Z,4.57
2023-02-02T01:43:59.506Z,4.57
2023-02-02T01:46:04.560Z,4.56
2023-02-02T01:48:11.797Z,4.34
2023-02-02T01:50:17.969Z,4.08
2023-02-02T01:52:25.475Z,3.97
2023-02-02T01:54:32.977Z,4.01
2023-02-02T01:56:44.269Z,4.08
2023-02-02T01:58:51.217Z,4.06
2023-02-02T02:00:56.685Z,3.89
2023-02-02T02:03:03.548Z,3.67
2023-02-02T02:05:12.454Z,3.59
2023-02-02T02:07:18.132Z,3.46
2023-02-02T02:09:22.852Z,3.37
2023-02-02T02:11:27.624Z,3.18
2023-02-02T02:13:45.073Z,2.87
2023-02-02T02:16:04.399Z,2.65
2023-02-02T02:18:15.569Z,2.51
2023-02-02T02:20:47.455Z,2.48
2023-02-02T02:23:14.603Z,2.48
2023-02-02T02:25:45.293Z,2.38
2023-02-02T02:28:01.226Z,2.42
2023-02-02T02:30:23.627Z,2.45
2023-02-02T02:32:36.285Z,2.62
2023-02-02T02:34:46.988Z,2.69
2023-02-02T02:36:53.962Z,2.79
2023-02-02T02:39:02.914Z,2.69
2023-02-02T02:41:11.764Z,2.79
2023-02-02T02:43:19.233Z,2.94
2023-02-02T02:45:25.049Z,2.81
2023-02-02T02:47:33.157Z,2.67
2023-02-02T02:49:44.862Z,2.52
2023-02-02T02:51:51.512Z,2.54
2023-02-02T02:54:00.837Z,2.48
2023-02-02T02:56:10.942Z,2.48
2023-02-02T02:58:16.510Z,2.60
2023-02-02T03:00:33.654Z,2.64
2023-02-02T03:02:45.201Z,2.65
2023-02-02T03:04:54.445Z,2.55
2023-02-02T03:07:02.516Z,2.43
2023-02-02T03:09:09.359Z,2.42
2023-02-02T03:11:15.382Z,2.49
2023-02-02T03:13:20.366Z,2.47
2023-02-02T03:15:25.656Z,2.49
2023-02-02T03:17:30.616Z,2.51
2023-02-02T03:19:37.818Z,2.59
2023-02-02T03:21:42.391Z,2.57
2023-02-02T03:23:47.006Z,2.62
2023-02-02T03:25:51.700Z,2.54
2023-02-02T03:27:56.378Z,2.51
2023-02-02T03:30:01.566Z,2.52
2023-02-02T03:32:06.205Z,2.61
2023-02-02T03:34:10.780Z,2.59
2023-02-02T03:36:18.004Z,2.58
2023-02-02T03:38:22.565Z,2.55
2023-02-02T03:40:27.218Z,2.60
2023-02-02T03:42:31.789Z,2.62
2023-02-02T03:44:36.418Z,2.62
2023-02-02T03:46:40.996Z,2.58
2023-02-02T03:48:45.600Z,2.67
2023-02-02T03:50:50.209Z,2.68
2023-02-02T03:52:57.788Z,2.75
2023-02-02T03:55:02.513Z,2.67
2023-02-02T03:57:07.121Z,2.76
2023-02-02T03:59:11.681Z,2.77
2023-02-02T04:01:16.679Z,2.80
2023-02-02T04:03:21.252Z,2.81
2023-02-02T04:05:26.207Z,2.71
2023-02-02T04:07:30.972Z,2.71
2023-02-02T04:09:38.240Z,2.81
2023-02-02T04:11:42.788Z,2.92
2023-02-02T04:13:47.470Z,2.94
2023-02-02T04:15:58.848Z,3.02
2023-02-02T04:18:03.472Z,2.98
2023-02-02T04:20:08.799Z,3.05
2023-02-02T04:22:13.377Z,3.09
2023-02-02T04:24:18.148Z,3.16
2023-02-02T04:26:25.775Z,3.26
2023-02-02T04:28:30.784Z,3.30
2023-02-02T04:30:35.447Z,3.45
2023-02-02T04:32:40.081Z,3.38
2023-02-02T04:34:44.659Z,3.39
2023-02-02T04:36:49.225Z,3.39
2023-02-02T04:38:54.024Z,3.42
2023-02-02T04:40:58.549Z,3.47
2023-02-02T04:43:05.803Z,3.57
2023-02-02T04:45:10.921Z,3.69
2023-02-02T04:47:15.564Z,3.78
2023-02-02T04:49:20.098Z,3.80
2023-02-02T04:51:24.651Z,3.76
2023-02-02T04:53:29.211Z,3.61
2023-02-02T04:55:33.860Z,3.37
2023-02-02T04:57:38.638Z,3.18
2023-02-02T04:59:45.745Z,3.10
2023-02-02T05:01:51.096Z,3.09
2023-02-02T05:03:55.655Z,3.01
2023-02-02T05:06:06.930Z,3.15
2023-02-02T05:08:12.191Z,3.06
2023-02-02T05:10:16.860Z,3.16
2023-02-02T05:12:21.451Z,3.29
2023-02-02T05:14:26.004Z,3.39
2023-02-02T05:16:33.187Z,3.25
2023-02-02T05:18:37.792Z,3.10
2023-02-02T05:20:42.396Z,3.13
2023-02-02T05:22:46.965Z,3.10
2023-02-02T05:24:51.560Z,3.21
2023-02-02T05:26:58.759Z,3.20
2023-02-02T05:29:03.586Z,3.21
2023-02-02T05:31:08.696Z,3.17
2023-02-02T05:33:15.846Z,3.10
2023-02-02T05:35:20.531Z,3.07
2023-02-02T05:37:25.242Z,3.05
2023-02-02T05:39:29.816Z,3.06
2023-02-02T05:41:34.393Z,3.01
2023-02-02T05:43:39.074Z,2.97
2023-02-02T05:45:43.619Z,3.01
2023-02-02T05:47:48.478Z,2.95
2023-02-02T05:49:56.899Z,2.96
2023-02-02T05:52:01.890Z,2.94
2023-02-02T05:54:06.579Z,2.91
2023-02-02T05:56:11.171Z,2.91
2023-02-02T05:58:18.695Z,2.85
2023-02-02T06:00:23.698Z,2.81
2023-02-02T06:02:28.713Z,2.88
2023-02-02T06:04:33.278Z,2.84
2023-02-02T06:06:45.787Z,2.85
2023-02-02T06:08:52.017Z,2.84
2023-02-02T06:10:56.891Z,2.81
2023-02-02T06:13:01.404Z,2.75
2023-02-02T06:15:06.288Z,2.75
2023-02-02T06:17:10.821Z,2.92
2023-02-02T06:19:15.428Z,3.05
2023-02-02T06:21:20.129Z,3.14
2023-02-02T06:23:27.371Z,3.25
2023-02-02T06:25:32.087Z,3.35
2023-02-02T06:27:36.647Z,3.32
2023-02-02T06:29:41.180Z,3.37
2023-02-02T06:31:45.963Z,3.37
2023-02-02T06:33:50.723Z,3.49
2023-02-02T06:35:55.357Z,3.39
2023-02-02T06:38:00.814Z,3.46
2023-02-02T06:40:08.541Z,3.50
2023-02-02T06:42:21.227Z,3.45
2023-02-02T06:44:26.102Z,3.42
2023-02-02T06:46:30.730Z,3.34
2023-02-02T06:48:35.370Z,3.36
2023-02-02T06:50:40.330Z,3.34
2023-02-02T06:52:50.033Z,3.35
2023-02-02T06:54:54.599Z,3.44
2023-02-02T06:57:01.755Z,3.45
2023-02-02T06:59:06.492Z,3.40
2023-02-02T07:01:12.449Z,3.37
2023-02-02T07:03:17.587Z,3.36
2023-02-02T07:05:24.412Z,3.31
2023-02-02T07:07:30.057Z,3.39
2023-02-02T07:09:35.050Z,3.40
2023-02-02T07:11:41.360Z,3.39
2023-02-02T07:13:52.893Z,3.34
2023-02-02T07:15:58.336Z,3.35
2023-02-02T07:18:02.960Z,3.32
2023-02-02T07:20:08.036Z,3.30
2023-02-02T07:22:12.606Z,3.35
2023-02-02T07:24:17.259Z,3.31
2023-02-02T07:26:22.223Z,3.39
2023-02-02T07:28:26.814Z,3.50
2023-02-02T07:30:34.031Z,3.38
2023-02-02T07:32:38.625Z,3.55
2023-02-02T07:34:44.304Z,3.57
2023-02-02T07:36:48.872Z,3.64
2023-02-02T07:38:54.654Z,3.71
2023-02-02T07:40:59.381Z,3.69
2023-02-02T07:43:05.038Z,3.69
2023-02-02T07:45:27.095Z,3.76
2023-02-02T07:47:37.014Z,3.80
2023-02-02T07:49:41.591Z,3.93
2023-02-02T07:51:49.225Z,3.99
2023-02-02T07:53:55.337Z,4.02
2023-02-02T07:56:08.101Z,4.08
2023-02-02T07:58:13.013Z,4.09
2023-02-02T08:00:17.916Z,4.16
2023-02-02T08:02:22.491Z,4.21
2023-02-02T08:04:30.349Z,4.36
2023-02-02T08:06:35.858Z,4.45
2023-02-02T08:08:40.392Z,4.48
2023-02-02T08:10:50.379Z,4.47
2023-02-02T08:12:54.962Z,4.56
2023-02-02T08:14:59.498Z,4.58
2023-02-02T08:17:04.175Z,4.57
2023-02-02T08:19:08.769Z,4.53
2023-02-02T08:21:16.195Z,4.47
2023-02-02T08:23:23.792Z,4.42
2023-02-02T08:25:28.513Z,4.32
2023-02-02T08:27:33.220Z,4.35
2023-02-02T08:29:38.216Z,4.36
2023-02-02T08:31:44.362Z,4.30
2023-02-02T08:33:48.972Z,4.30
2023-02-02T08:35:53.645Z,4.24
2023-02-02T08:38:03.132Z,4.21
2023-02-02T08:40:08.406Z,4.30
2023-02-02T08:42:13.246Z,4.29
2023-02-02T08:44:19.646Z,4.18
2023-02-02T08:46:24.487Z,4.21
2023-02-02T08:48:29.148Z,4.20
2023-02-02T08:50:33.897Z,4.17
2023-02-02T08:52:38.523Z,4.11
2023-02-02T08:54:46.151Z,4.06
2023-02-02T08:56:50.721Z,4.11
2023-02-02T08:58:56.119Z,4.10
2023-02-02T09:01:06.655Z,4.02
2023-02-02T09:03:11.242Z,3.92
2023-02-02T09:05:15.809Z,3.92
2023-02-02T09:07:21.296Z,3.89
2023-02-02T09:09:25.975Z,3.94
2023-02-02T09:11:33.242Z,3.92
2023-02-02T09:13:38.241Z,3.81
2023-02-02T09:15:42.796Z,3.88
2023-02-02T09:17:47.387Z,3.86
2023-02-02T09:19:51.916Z,3.87
2023-02-02T09:21:56.489Z,3.93
2023-02-02T09:24:01.166Z,3.97
2023-02-02T09:26:15.667Z,3.96
2023-02-02T09:28:22.816Z,3.88
2023-02-02T09:30:27.390Z,3.85
2023-02-02T09:32:32.001Z,3.80
2023-02-02T09:34:36.648Z,3.80
2023-02-02T09:36:41.784Z,3.80
2023-02-02T09:38:46.533Z,3.84
2023-02-02T09:40:51.204Z,3.92
2023-02-02T09:43:00.907Z,3.90
2023-02-02T09:45:10.708Z,3.90
2023-02-02T09:47:19.522Z,3.93
2023-02-02T09:49:26.408Z,3.96
2023-02-02T09:51:33.200Z,4.00
2023-02-02T09:53:54.650Z,4.09
2023-02-02T09:56:02.584Z,4.15
2023-02-02T09:58:10.955Z,4.25
2023-02-02T10:00:26.740Z,4.29
2023-02-02T10:02:34.955Z,4.39
2023-02-02T10:04:41.190Z,4.42
2023-02-02T10:06:47.435Z,4.48
2023-02-02T10:08:55.971Z,4.48
2023-02-02T10:11:00.678Z,4.56
2023-02-02T10:13:08.551Z,4.66
2023-02-02T10:15:18.806Z,4.58
2023-02-02T10:17:38.754Z,4.65
2023-02-02T10:19:43.838Z,4.82
2023-02-02T10:21:51.746Z,4.99
2023-02-02T10:23:58.873Z,5.13
2023-02-02T10:26:07.259Z,5.22
2023-02-02T10:28:19.658Z,5.31
2023-02-02T10:30:28.343Z,5.39
2023-02-02T10:32:38.687Z,5.50
2023-02-02T10:34:44.466Z,5.57
2023-02-02T10:36:53.515Z,5.56
2023-02-02T10:39:03.158Z,5.64
2023-02-02T10:41:15.424Z,5.67
2023-02-02T10:43:46.197Z,5.74
2023-02-02T10:45:52.143Z,5.74
2023-02-02T10:47:59.434Z,5.81
2023-02-02T10:50:06.261Z,5.82
2023-02-02T10:52:18.042Z,5.86
2023-02-02T10:54:55.468Z,5.92
2023-02-02T10:57:03.451Z,5.94
2023-02-02T10:59:09.660Z,5.95
2023-02-02T11:01:18.295Z,5.95
2023-02-02T11:03:29.148Z,6.07
2023-02-02T11:05:46.683Z,6.10
2023-02-02T11:07:52.459Z,6.11
2023-02-02T11:09:57.345Z,6.07
2023-02-02T11:12:06.606Z,6.18
2023-02-02T11:14:16.079Z,6.19
2023-02-02T11:16:32.573Z,6.27
2023-02-02T11:18:46.794Z,6.24
2023-02-02T11:20:51.483Z,6.24
2023-02-02T11:23:03.426Z,6.25
2023-02-02T11:25:09.009Z,6.18
2023-02-02T11:27:16.734Z,6.20
2023-02-02T11:29:22.304Z,6.22
2023-02-02T11:31:34.228Z,6.24
2023-02-02T11:33:39.337Z,6.22
2023-02-02T11:35:55.164Z,6.24
2023-02-02T11:38:11.014Z,6.24
2023-02-02T11:40:29.516Z,6.13
2023-02-02T11:42:34.162Z,6.11
2023-02-02T11:44:41.478Z,6.09
2023-02-02T11:46:46.660Z,6.12
2023-02-02T11:48:52.947Z,6.10
2023-02-02T11:51:01.404Z,6.11
2023-02-02T11:53:06.968Z,6.12
2023-02-02T11:55:17.465Z,6.18
2023-02-02T11:57:23.580Z,6.12
2023-02-02T11:59:30.691Z,6.18
2023-02-02T12:01:36.559Z,6.22
2023-02-02T12:03:41.811Z,6.24
2023-02-02T12:05:50.076Z,6.17
2023-02-02T12:07:57.253Z,6.22
2023-02-02T12:10:03.548Z,6.26
2023-02-02T12:12:12.649Z,6.16
2023-02-02T12:14:27.174Z,6.14
2023-02-02T12:16:41.487Z,6.12
2023-02-02T12:18:50.558Z,6.19
2023-02-02T12:21:00.389Z,6.21
2023-02-02T12:23:25.801Z,6.21
2023-02-02T12:25:40.857Z,6.21
2023-02-02T12:27:50.648Z,6.23
2023-02-02T12:30:01.340Z,6.30
2023-02-02T12:32:19.092Z,6.29
2023-02-02T12:34:28.206Z,6.27
2023-02-02T12:36:39.631Z,6.27
2023-02-02T12:38:57.896Z,6.34
2023-02-02T12:41:13.401Z,6.35
2023-02-02T12:43:26.376Z,6.42
2023-02-02T12:45:45.686Z,6.39
2023-02-02T12:47:54.593Z,6.37
2023-02-02T12:50:07.057Z,6.39
2023-02-02T12:52:19.196Z,6.35
2023-02-02T12:54:47.813Z,6.39
2023-02-02T12:57:01.716Z,6.39
2023-02-02T12:59:14.378Z,6.52
2023-02-02T13:01:31.525Z,6.50
2023-02-02T13:03:41.904Z,6.43
2023-02-02T13:05:54.804Z,6.38
2023-02-02T13:08:01.826Z,6.37
2023-02-02T13:10:14.782Z,6.45
2023-02-02T13:12:24.129Z,6.45
2023-02-02T13:14:30.404Z,6.38
2023-02-02T13:16:36.369Z,6.41
2023-02-02T13:18:42.642Z,6.37
2023-02-02T13:20:50.690Z,6.36
2023-02-02T13:22:59.238Z,6.36
2023-02-02T13:25:05.050Z,6.27
2023-02-02T13:27:13.078Z,6.31
2023-02-02T13:29:25.810Z,6.29
2023-02-02T13:31:33.198Z,6.32
2023-02-02T13:33:39.182Z,6.29
2023-02-02T13:35:49.435Z,6.29
2023-02-02T13:37:57.329Z,6.29
2023-02-02T13:40:03.941Z,6.26
2023-02-02T13:42:17.013Z,6.29
2023-02-02T13:44:29.134Z,6.29
2023-02-02T13:46:37.923Z,6.33
2023-02-02T13:48:49.837Z,6.37
2023-02-02T13:51:05.918Z,6.37
2023-02-02T13:53:17.781Z,6.32
2023-02-02T13:55:36.873Z,6.41
2023-02-02T13:57:57.127Z,6.34
2023-02-02T14:00:15.232Z,6.35
2023-02-02T14:02:25.022Z,6.40
2023-02-02T14:04:30.770Z,6.35
2023-02-02T14:06:54.269Z,6.31
2023-02-02T14:09:00.184Z,6.31
2023-02-02T14:11:06.047Z,6.26
2023-02-02T14:13:31.806Z,6.27
2023-02-02T14:15:44.011Z,6.26
2023-02-02T14:17:57.891Z,6.24
2023-02-02T14:20:03.627Z,6.15
2023-02-02T14:22:19.439Z,6.25
2023-02-02T14:24:42.024Z,6.31
2023-02-02T14:26:47.558Z,6.36
2023-02-02T14:28:53.651Z,6.28
2023-02-02T14:31:13.195Z,6.21
2023-02-02T14:33:47.775Z,6.27
2023-02-02T14:36:06.360Z,6.19
2023-02-02T14:38:13.680Z,6.20
2023-02-02T14:40:36.648Z,6.16
2023-02-02T14:43:01.136Z,6.17
2023-02-02T14:45:25.610Z,6.19
2023-02-02T14:47:45.436Z,6.12
2023-02-02T14:49:50.153Z,6.18
2023-02-02T14:51:58.607Z,6.20
2023-02-02T14:54:04.639Z,6.23
2023-02-02T14:56:11.457Z,6.23
2023-02-02T14:58:24.390Z,6.06
2023-02-02T15:00:31.354Z,5.82
2023-02-02T15:02:37.776Z,5.93
2023-02-02T15:04:42.429Z,6.02
2023-02-02T15:06:47.296Z,5.84
2023-02-02T15:09:06.720Z,5.77
2023-02-02T15:11:26.635Z,5.71
2023-02-02T15:13:37.730Z,5.67
2023-02-02T15:15:44.136Z,5.65
2023-02-02T15:17:59.382Z,5.48
2023-02-02T15:20:10.802Z,5.37
2023-02-02T15:22:24.356Z,5.25
2023-02-02T15:24:29.956Z,5.14
2023-02-02T15:26:38.584Z,5.01
2023-02-02T15:28:46.176Z,4.96
2023-02-02T15:30:53.315Z,4.81
2023-02-02T15:32:59.320Z,4.72
2023-02-02T15:35:05.852Z,4.67
2023-02-02T15:37:14.476Z,4.58
2023-02-02T15:39:24.767Z,4.65
2023-02-02T15:41:33.010Z,4.60
2023-02-02T15:43:41.348Z,4.58
2023-02-02T15:45:48.193Z,4.55
2023-02-02T15:47:52.975Z,4.47
2023-02-02T15:49:59.576Z,4.58
2023-02-02T15:52:06.329Z,4.69
2023-02-02T15:54:23.617Z,4.66
2023-02-02T15:56:32.668Z,4.57
2023-02-02T15:58:42.266Z,4.62
2023-02-02T16:00:46.851Z,4.66
2023-02-02T16:02:53.828Z,4.73
2023-02-02T16:04:58.453Z,4.80
2023-02-02T16:07:03.604Z,4.84
2023-02-02T16:09:08.950Z,4.77
2023-02-02T16:11:14.673Z,4.80
2023-02-02T16:13:26.778Z,4.90
2023-02-02T16:15:34.594Z,4.88
2023-02-02T16:17:39.615Z,4.95
2023-02-02T16:19:45.143Z,4.96
2023-02-02T16:21:51.833Z,4.91
2023-02-02T16:23:57.394Z,4.92
2023-02-02T16:26:03.406Z,4.90
2023-02-02T16:28:08.396Z,4.87
2023-02-02T16:30:30.679Z,4.88
2023-02-02T16:32:42.093Z,4.98
2023-02-02T16:34:48.965Z,5.03
2023-02-02T16:37:08.696Z,5.04
2023-02-02T16:39:26.325Z,5.02
2023-02-02T16:41:33.044Z,4.99
2023-02-02T16:43:38.496Z,4.95
2023-02-02T16:45:47.772Z,4.85
2023-02-02T16:47:55.127Z,4.95
2023-02-02T16:50:19.442Z,4.97
2023-02-02T16:52:24.837Z,4.93
2023-02-02T16:54:29.464Z,5.01
2023-02-02T16:56:36.440Z,4.96
2023-02-02T16:58:42.515Z,4.97
2023-02-02T17:01:02.133Z,4.96
2023-02-02T17:03:13.478Z,5.07
2023-02-02T17:05:21.993Z,5.07
2023-02-02T17:07:26.908Z,5.10
2023-02-02T17:09:36.489Z,5.07
2023-02-02T17:11:41.317Z,5.04
2023-02-02T17:13:46.079Z,4.92
2023-02-02T17:15:56.765Z,4.92
2023-02-02T17:18:01.371Z,5.00
2023-02-02T17:20:10.759Z,5.09
2023-02-02T17:22:15.387Z,5.08
2023-02-02T17:24:20.034Z,5.07
2023-02-02T17:26:24.764Z,5.14
2023-02-02T17:28:29.946Z,5.18
2023-02-02T17:30:34.643Z,5.24
2023-02-02T17:32:39.295Z,5.22
2023-02-02T17:34:45.347Z,5.26
2023-02-02T17:36:54.827Z,5.31
2023-02-02T17:38:59.788Z,5.33
2023-02-02T17:41:05.458Z,5.33
2023-02-02T17:43:14.124Z,5.36
2023-02-02T17:45:20.415Z,5.39
2023-02-02T17:47:24.945Z,5.38
2023-02-02T17:49:29.574Z,5.39
2023-02-02T17:51:41.187Z,5.39
2023-02-02T17:53:48.845Z,5.41
2023-02-02T17:55:53.559Z,5.48
2023-02-02T17:57:58.323Z,5.45
2023-02-02T18:00:02.906Z,5.42
2023-02-02T18:02:09.231Z,5.42
2023-02-02T18:04:15.810Z,5.44
2023-02-02T18:06:20.350Z,5.47
2023-02-02T18:08:24.887Z,5.47
2023-02-02T18:10:32.771Z,5.42
2023-02-02T18:12:37.333Z,5.37
2023-02-02T18:14:42.039Z,5.34
2023-02-02T18:16:47.078Z,5.36
2023-02-02T18:18:51.681Z,5.37
2023-02-02T18:20:56.256Z,5.36
2023-02-02T18:23:00.875Z,5.27
2023-02-02T18:25:05.420Z,5.20
2023-02-02T18:27:12.593Z,5.14
2023-02-02T18:29:17.176Z,5.13
2023-02-02T18:31:24.040Z,5.22
2023-02-02T18:33:28.776Z,5.21
2023-02-02T18:35:33.426Z,5.25
2023-02-02T18:37:38.238Z,5.31
2023-02-02T18:39:42.820Z,5.28
2023-02-02T18:41:47.425Z,5.29
2023-02-02T18:43:56.381Z,5.35
2023-02-02T18:46:02.018Z,5.40
2023-02-02T18:48:06.759Z,5.44
2023-02-02T18:50:11.932Z,5.49
2023-02-02T18:52:16.601Z,5.41
2023-02-02T18:54:21.206Z,5.35
2023-02-02T18:56:25.875Z,5.39
2023-02-02T18:58:30.423Z,5.39
2023-02-02T19:00:37.689Z,5.39
2023-02-02T19:02:42.332Z,5.39
2023-02-02T19:05:07.581Z,5.42
2023-02-02T19:07:36.676Z,5.48
2023-02-02T19:09:41.249Z,5.46
2023-02-02T19:11:46.696Z,5.41
2023-02-02T19:13:51.517Z,5.31
2023-02-02T19:16:00.166Z,5.23
2023-02-02T19:18:06.048Z,5.27
2023-02-02T19:20:21.994Z,5.35
2023-02-02T19:22:31.216Z,5.38
2023-02-02T19:24:37.701Z,5.36
2023-02-02T19:26:43.842Z,5.29
2023-02-02T19:28:48.475Z,5.33
2023-02-02T19:30:54.681Z,5.38
2023-02-02T19:33:01.923Z,5.37
2023-02-02T19:35:10.142Z,5.32
2023-02-02T19:37:23.104Z,5.33
2023-02-02T19:39:30.884Z,5.35
2023-02-02T19:41:35.434Z,5.36
2023-02-02T19:43:42.676Z,5.38
2023-02-02T19:45:47.915Z,5.46
2023-02-02T19:47:53.931Z,5.53
2023-02-02T19:50:01.701Z,5.53
2023-02-02T19:52:08.201Z,5.50
2023-02-02T19:54:28.020Z,5.57
2023-02-02T19:56:36.396Z,5.58
2023-02-02T19:59:42.822Z,5.68
2023-02-02T20:01:50.767Z,5.74
2023-02-02T20:03:55.635Z,5.85
2023-02-02T20:06:01.154Z,5.95
2023-02-02T20:08:11.341Z,6.04
2023-02-02T20:10:24.150Z,6.05
2023-02-02T20:12:34.523Z,6.04
2023-02-02T20:14:42.083Z,6.04
2023-02-02T20:16:51.494Z,6.04
2023-02-02T20:18:59.603Z,5.94
2023-02-02T20:21:08.128Z,5.93
2023-02-02T20:23:28.093Z,5.95
2023-02-02T20:25:34.038Z,5.79
2023-02-02T20:27:40.762Z,5.80
2023-02-02T20:29:50.660Z,5.82
2023-02-02T20:31:57.590Z,5.83
2023-02-02T20:34:02.652Z,5.90
2023-02-02T20:36:38.317Z,5.89
2023-02-02T20:38:43.195Z,5.94
2023-02-02T20:40:48.302Z,5.94
2023-02-02T20:42:53.644Z,5.98
2023-02-02T20:45:01.234Z,6.02
2023-02-02T20:47:07.986Z,5.96
2023-02-02T20:49:13.271Z,5.87
2023-02-02T20:51:18.560Z,5.80
2023-02-02T20:53:23.423Z,5.83
2023-02-02T20:55:28.754Z,5.83
2023-02-02T20:57:33.812Z,5.80
2023-02-02T20:59:40.883Z,5.81
2023-02-02T21:01:49.875Z,5.79
2023-02-02T21:03:55.153Z,5.89
2023-02-02T21:06:00.142Z,5.82
2023-02-02T21:08:05.415Z,5.81
2023-02-02T21:10:10.820Z,5.79
2023-02-02T21:12:15.687Z,5.85
2023-02-02T21:14:20.504Z,5.81
2023-02-02T21:16:25.512Z,5.83
2023-02-02T21:18:32.912Z,5.82
2023-02-02T21:20:37.791Z,5.90
2023-02-02T21:22:42.684Z,5.92
2023-02-02T21:24:47.515Z,5.86
2023-02-02T21:26:53.941Z,5.86
2023-02-02T21:28:59.994Z,5.88
2023-02-02T21:31:04.952Z,5.87
2023-02-02T21:33:10.052Z,5.93
2023-02-02T21:35:17.780Z,5.89
2023-02-02T21:37:22.731Z,5.86
2023-02-02T21:39:31.647Z,5.90
2023-02-02T21:41:37.170Z,5.93
2023-02-02T21:43:42.193Z,5.90
2023-02-02T21:45:51.859Z,5.88
2023-02-02T21:47:58.849Z,5.89
2023-02-02T21:50:16.730Z,5.87
2023-02-02T21:52:24.317Z,5.79
2023-02-02T21:54:31.319Z,5.80
2023-02-02T21:56:41.683Z,5.83
2023-02-02T21:58:47.699Z,5.74
2023-02-02T22:00:52.955Z,5.73
2023-02-02T22:02:58.989Z,5.72
2023-02-02T22:05:18.386Z,5.70
2023-02-02T22:07:25.856Z,5.74
2023-02-02T22:09:39.799Z,5.74
2023-02-02T22:11:49.461Z,5.71
2023-02-02T22:13:56.775Z,5.76
2023-02-02T22:16:01.763Z,5.78
2023-02-02T22:18:16.059Z,5.77
2023-02-02T22:20:36.030Z,5.78
2023-02-02T22:22:47.526Z,5.76
2023-02-02T22:25:00.597Z,5.72
2023-02-02T22:27:05.498Z,5.72
2023-02-02T22:29:17.985Z,5.72
2023-02-02T22:31:22.925Z,5.78
2023-02-02T22:33:28.601Z,5.79
2023-02-02T22:35:33.415Z,5.73
2023-02-02T22:37:38.348Z,5.74
2023-02-02T22:39:48.480Z,5.81
2023-02-02T22:41:53.429Z,5.76
2023-02-02T22:43:58.242Z,5.79
2023-02-02T22:46:03.146Z,5.89
2023-02-02T22:48:08.581Z,5.96
2023-02-02T22:50:14.150Z,5.97
2023-02-02T22:52:18.994Z,5.96
2023-02-02T22:54:23.937Z,5.86
2023-02-02T22:56:32.168Z,5.90
2023-02-02T22:58:37.158Z,5.96
2023-02-02T23:00:42.013Z,5.94
2023-02-02T23:02:47.160Z,5.95
2023-02-02T23:04:51.950Z,5.97
2023-02-02T23:06:56.891Z,5.89
2023-02-02T23:09:01.710Z,5.96
2023-02-02T23:11:06.630Z,5.99
2023-02-02T23:13:14.110Z,6.04
2023-02-02T23:15:19.437Z,5.99
2023-02-02T23:17:23.988Z,5.95
2023-02-02T23:19:28.853Z,5.96
2023-02-02T23:21:33.721Z,5.98
2023-02-02T23:23:38.610Z,6.07
2023-02-02T23:25:46.392Z,6.08
2023-02-02T23:27:51.302Z,6.12
2023-02-02T23:29:58.800Z,6.03
2023-02-02T23:32:03.767Z,6.04
2023-02-02T23:34:08.681Z,6.08
2023-02-02T23:36:13.693Z,6.14
2023-02-02T23:38:18.480Z,6.11
2023-02-02T23:40:23.605Z,6.10
2023-02-02T23:42:28.476Z,6.10
2023-02-02T23:44:33.333Z,6.07
2023-02-02T23:46:42.431Z,6.11
2023-02-02T23:48:47.911Z,6.12
2023-02-02T23:50:52.724Z,6.15
2023-02-02T23:52:57.918Z,6.13
2023-02-02T23:55:03.072Z,6.07
2023-02-02T23:57:08.059Z,6.04
2023-02-02T23:59:13.029Z,5.98
